sensor_id;sensor_type;location;lat;lon;timestamp;P1;durP1;ratioP1;P2;durP2;ratioP2
2486;SDS011;1254;49.144;8.212;2024-01-15T00:02:06;41.40;;;15.55;;
2486;SDS011;1254;49.144;8.212;2024-01-15T00:04:36;46.38;;;16.88;;
2486;SDS011;1254;49.144;8.212;2024-01-15T00:07:04;36.45;;;15.23;;
2486;SDS011;1254;49.144;8.212;2024-01-15T00:09:34;35.22;;;15.15;;
2486;SDS011;1254;49.144;8.212;2024-01-15T00:12:03;43.25;;;16.45;;
2486;SDS011;1254;49.144;8.212;2024-01-15T00:14:31;37.97;;;17.10;;
2486;SDS011;1254;49.144;8.212;2024-01-15T00:16:59;31.17;;;14.77;;
2486;SDS011;1254;49.144;8.212;2024-01-15T00:19:27;35.72;;;16.33;;
2486;SDS011;1254;49.144;8.212;2024-01-15T00:21:58;48.83;;;18.80;;
2486;SDS011;1254;49.144;8.212;2024-01-15T00:24:26;33.03;;;14.57;;
2486;SDS011;1254;49.144;8.212;2024-01-15T00:26:56;31.23;;;15.30;;
2486;SDS011;1254;49.144;8.212;2024-01-15T00:29:24;34.55;;;14.77;;
2486;SDS011;1254;49.144;8.212;2024-01-15T00:31:52;38.50;;;17.98;;
2486;SDS011;1254;49.144;8.212;2024-01-15T00:34:20;36.20;;;16.17;;
2486;SDS011;1254;49.144;8.212;2024-01-15T00:36:48;30.55;;;14.65;;
2486;SDS011;1254;49.144;8.212;2024-01-15T00:39:16;27.95;;;12.90;;
2486;SDS011;1254;49.144;8.212;2024-01-15T00:41:45;34.00;;;14.07;;
2486;SDS011;1254;49.144;8.212;2024-01-15T00:44:14;28.77;;;11.82;;
2486;SDS011;1254;49.144;8.212;2024-01-15T00:46:43;28.55;;;13.20;;
2486;SDS011;1254;49.144;8.212;2024-01-15T00:49:12;34.13;;;14.10;;
2486;SDS011;1254;49.144;8.212;2024-01-15T00:51:40;26.83;;;11.52;;
2486;SDS011;1254;49.144;8.212;2024-01-15T00:54:08;27.38;;;11.98;;
2486;SDS011;1254;49.144;8.212;2024-01-15T00:56:37;27.23;;;13.02;;
2486;SDS011;1254;49.144;8.212;2024-01-15T00:59:05;35.63;;;11.07;;
2486;SDS011;1254;49.144;8.212;2024-01-15T01:01:35;25.17;;;12.85;;
2486;SDS011;1254;49.144;8.212;2024-01-15T01:04:04;31.42;;;11.98;;
2486;SDS011;1254;49.144;8.212;2024-01-15T01:06:32;29.67;;;12.32;;
2486;SDS011;1254;49.144;8.212;2024-01-15T01:09:01;23.13;;;10.55;;
2486;SDS011;1254;49.144;8.212;2024-01-15T01:11:29;27.98;;;11.73;;
2486;SDS011;1254;49.144;8.212;2024-01-15T01:13:57;28.48;;;12.25;;
2486;SDS011;1254;49.144;8.212;2024-01-15T01:16:26;28.20;;;12.50;;
2486;SDS011;1254;49.144;8.212;2024-01-15T01:18:56;25.67;;;11.80;;
2486;SDS011;1254;49.144;8.212;2024-01-15T01:21:24;26.42;;;10.70;;
2486;SDS011;1254;49.144;8.212;2024-01-15T01:23:52;26.35;;;10.32;;
2486;SDS011;1254;49.144;8.212;2024-01-15T01:26:21;26.30;;;12.32;;
2486;SDS011;1254;49.144;8.212;2024-01-15T01:28:49;26.95;;;12.27;;
2486;SDS011;1254;49.144;8.212;2024-01-15T01:31:17;29.73;;;11.35;;
2486;SDS011;1254;49.144;8.212;2024-01-15T01:33:46;21.98;;;10.65;;
2486;SDS011;1254;49.144;8.212;2024-01-15T01:36:15;19.98;;;10.43;;
2486;SDS011;1254;49.144;8.212;2024-01-15T01:38:43;27.42;;;11.95;;
2486;SDS011;1254;49.144;8.212;2024-01-15T01:41:12;20.98;;;10.02;;
2486;SDS011;1254;49.144;8.212;2024-01-15T01:43:40;20.65;;;10.50;;
2486;SDS011;1254;49.144;8.212;2024-01-15T01:46:08;21.67;;;11.35;;
2486;SDS011;1254;49.144;8.212;2024-01-15T01:48:37;20.38;;;11.15;;
2486;SDS011;1254;49.144;8.212;2024-01-15T01:51:05;22.80;;;10.82;;
2486;SDS011;1254;49.144;8.212;2024-01-15T01:53:35;25.60;;;11.60;;
2486;SDS011;1254;49.144;8.212;2024-01-15T01:56:04;25.67;;;10.43;;
2486;SDS011;1254;49.144;8.212;2024-01-15T01:58:32;27.77;;;11.48;;
2486;SDS011;1254;49.144;8.212;2024-01-15T02:01:01;28.40;;;11.40;;
2486;SDS011;1254;49.144;8.212;2024-01-15T02:03:30;17.73;;;8.15;;
2486;SDS011;1254;49.144;8.212;2024-01-15T02:05:58;22.40;;;11.02;;
2486;SDS011;1254;49.144;8.212;2024-01-15T02:08:27;22.98;;;10.25;;
2486;SDS011;1254;49.144;8.212;2024-01-15T02:10:56;23.48;;;9.98;;
2486;SDS011;1254;49.144;8.212;2024-01-15T02:13:24;23.23;;;10.10;;
2486;SDS011;1254;49.144;8.212;2024-01-15T02:15:52;20.38;;;8.93;;
2486;SDS011;1254;49.144;8.212;2024-01-15T02:18:20;21.20;;;9.75;;
2486;SDS011;1254;49.144;8.212;2024-01-15T02:20:48;22.13;;;10.23;;
2486;SDS011;1254;49.144;8.212;2024-01-15T02:23:18;20.90;;;9.90;;
2486;SDS011;1254;49.144;8.212;2024-01-15T02:25:46;20.95;;;10.90;;
2486;SDS011;1254;49.144;8.212;2024-01-15T02:28:14;20.00;;;10.27;;
2486;SDS011;1254;49.144;8.212;2024-01-15T02:30:43;22.88;;;11.02;;
2486;SDS011;1254;49.144;8.212;2024-01-15T02:33:11;26.35;;;11.00;;
2486;SDS011;1254;49.144;8.212;2024-01-15T02:35:39;23.35;;;10.68;;
2486;SDS011;1254;49.144;8.212;2024-01-15T02:38:07;26.30;;;10.15;;
2486;SDS011;1254;49.144;8.212;2024-01-15T02:40:37;22.33;;;10.32;;
2486;SDS011;1254;49.144;8.212;2024-01-15T02:43:05;23.70;;;10.65;;
2486;SDS011;1254;49.144;8.212;2024-01-15T02:45:33;22.75;;;10.70;;
2486;SDS011;1254;49.144;8.212;2024-01-15T02:48:01;23.83;;;10.02;;
2486;SDS011;1254;49.144;8.212;2024-01-15T02:50:30;26.50;;;10.93;;
2486;SDS011;1254;49.144;8.212;2024-01-15T02:52:58;22.95;;;9.80;;
2486;SDS011;1254;49.144;8.212;2024-01-15T02:55:26;26.50;;;11.15;;
2486;SDS011;1254;49.144;8.212;2024-01-15T02:57:56;27.75;;;12.43;;
2486;SDS011;1254;49.144;8.212;2024-01-15T03:00:24;22.30;;;10.82;;
2486;SDS011;1254;49.144;8.212;2024-01-15T03:02:52;26.05;;;10.70;;
2486;SDS011;1254;49.144;8.212;2024-01-15T03:05:21;27.85;;;14.52;;
2486;SDS011;1254;49.144;8.212;2024-01-15T03:07:49;29.27;;;14.35;;
2486;SDS011;1254;49.144;8.212;2024-01-15T03:10:17;32.72;;;18.73;;
2486;SDS011;1254;49.144;8.212;2024-01-15T03:12:45;65.75;;;32.97;;
2486;SDS011;1254;49.144;8.212;2024-01-15T03:15:15;25.75;;;12.45;;
2486;SDS011;1254;49.144;8.212;2024-01-15T03:17:44;18.30;;;10.93;;
2486;SDS011;1254;49.144;8.212;2024-01-15T03:20:12;24.17;;;12.90;;
2486;SDS011;1254;49.144;8.212;2024-01-15T03:22:40;32.28;;;18.77;;
2486;SDS011;1254;49.144;8.212;2024-01-15T03:25:09;23.40;;;13.73;;
2486;SDS011;1254;49.144;8.212;2024-01-15T03:27:37;29.20;;;13.00;;
2486;SDS011;1254;49.144;8.212;2024-01-15T03:30:06;27.17;;;11.43;;
2486;SDS011;1254;49.144;8.212;2024-01-15T03:32:36;25.33;;;12.30;;
2486;SDS011;1254;49.144;8.212;2024-01-15T03:35:04;23.70;;;12.23;;
2486;SDS011;1254;49.144;8.212;2024-01-15T03:37:33;20.30;;;10.90;;
2486;SDS011;1254;49.144;8.212;2024-01-15T03:40:01;31.63;;;16.42;;
2486;SDS011;1254;49.144;8.212;2024-01-15T03:42:30;35.38;;;16.13;;
2486;SDS011;1254;49.144;8.212;2024-01-15T03:44:58;24.92;;;14.30;;
2486;SDS011;1254;49.144;8.212;2024-01-15T03:47:26;19.80;;;10.18;;
2486;SDS011;1254;49.144;8.212;2024-01-15T03:49:56;23.73;;;13.10;;
2486;SDS011;1254;49.144;8.212;2024-01-15T03:52:24;26.95;;;12.18;;
2486;SDS011;1254;49.144;8.212;2024-01-15T03:54:52;25.65;;;11.07;;
2486;SDS011;1254;49.144;8.212;2024-01-15T03:57:20;23.42;;;11.65;;
2486;SDS011;1254;49.144;8.212;2024-01-15T03:59:48;22.02;;;11.07;;
2486;SDS011;1254;49.144;8.212;2024-01-15T04:02:17;29.70;;;12.05;;
2486;SDS011;1254;49.144;8.212;2024-01-15T04:04:45;18.88;;;11.05;;
2486;SDS011;1254;49.144;8.212;2024-01-15T04:07:14;27.83;;;10.80;;
2486;SDS011;1254;49.144;8.212;2024-01-15T04:09:43;25.98;;;11.93;;
2486;SDS011;1254;49.144;8.212;2024-01-15T04:12:11;23.88;;;12.80;;
2486;SDS011;1254;49.144;8.212;2024-01-15T04:14:39;18.90;;;11.57;;
2486;SDS011;1254;49.144;8.212;2024-01-15T04:17:07;22.92;;;12.23;;
2486;SDS011;1254;49.144;8.212;2024-01-15T04:19:35;22.85;;;11.90;;
2486;SDS011;1254;49.144;8.212;2024-01-15T04:22:04;17.73;;;9.80;;
2486;SDS011;1254;49.144;8.212;2024-01-15T04:24:33;22.92;;;10.98;;
2486;SDS011;1254;49.144;8.212;2024-01-15T04:27:02;19.88;;;11.18;;
2486;SDS011;1254;49.144;8.212;2024-01-15T04:29:30;24.10;;;11.65;;
2486;SDS011;1254;49.144;8.212;2024-01-15T04:31:58;19.20;;;10.25;;
2486;SDS011;1254;49.144;8.212;2024-01-15T04:34:26;25.48;;;11.52;;
2486;SDS011;1254;49.144;8.212;2024-01-15T04:36:54;23.08;;;12.73;;
2486;SDS011;1254;49.144;8.212;2024-01-15T04:39:23;20.83;;;10.95;;
2486;SDS011;1254;49.144;8.212;2024-01-15T04:41:52;24.58;;;11.30;;
2486;SDS011;1254;49.144;8.212;2024-01-15T04:44:21;20.83;;;10.23;;
2486;SDS011;1254;49.144;8.212;2024-01-15T04:46:49;26.17;;;10.30;;
2486;SDS011;1254;49.144;8.212;2024-01-15T04:49:17;24.50;;;12.45;;
2486;SDS011;1254;49.144;8.212;2024-01-15T04:51:45;23.52;;;11.77;;
2486;SDS011;1254;49.144;8.212;2024-01-15T04:54:14;21.38;;;11.02;;
2486;SDS011;1254;49.144;8.212;2024-01-15T04:56:43;22.33;;;11.38;;
2486;SDS011;1254;49.144;8.212;2024-01-15T04:59:13;23.75;;;13.70;;
2486;SDS011;1254;49.144;8.212;2024-01-15T05:01:41;19.30;;;9.35;;
2486;SDS011;1254;49.144;8.212;2024-01-15T05:04:09;27.30;;;12.82;;
2486;SDS011;1254;49.144;8.212;2024-01-15T05:06:38;21.88;;;11.35;;
2486;SDS011;1254;49.144;8.212;2024-01-15T05:09:06;20.88;;;11.55;;
2486;SDS011;1254;49.144;8.212;2024-01-15T05:11:34;21.92;;;10.27;;
2486;SDS011;1254;49.144;8.212;2024-01-15T05:14:02;19.27;;;9.23;;
2486;SDS011;1254;49.144;8.212;2024-01-15T05:16:32;20.45;;;11.98;;
2486;SDS011;1254;49.144;8.212;2024-01-15T05:19:00;19.20;;;10.48;;
2486;SDS011;1254;49.144;8.212;2024-01-15T05:21:29;19.52;;;10.57;;
2486;SDS011;1254;49.144;8.212;2024-01-15T05:23:57;20.33;;;11.25;;
2486;SDS011;1254;49.144;8.212;2024-01-15T05:26:25;20.27;;;11.43;;
2486;SDS011;1254;49.144;8.212;2024-01-15T05:28:53;26.17;;;11.15;;
2486;SDS011;1254;49.144;8.212;2024-01-15T05:31:22;20.63;;;10.65;;
2486;SDS011;1254;49.144;8.212;2024-01-15T05:33:51;23.73;;;11.25;;
2486;SDS011;1254;49.144;8.212;2024-01-15T05:36:20;25.83;;;13.95;;
2486;SDS011;1254;49.144;8.212;2024-01-15T05:38:48;28.02;;;14.15;;
2486;SDS011;1254;49.144;8.212;2024-01-15T05:41:17;21.73;;;10.60;;
2486;SDS011;1254;49.144;8.212;2024-01-15T05:43:45;29.50;;;13.70;;
2486;SDS011;1254;49.144;8.212;2024-01-15T05:46:13;30.50;;;13.27;;
2486;SDS011;1254;49.144;8.212;2024-01-15T05:48:41;26.00;;;13.00;;
2486;SDS011;1254;49.144;8.212;2024-01-15T05:51:11;24.30;;;12.15;;
2486;SDS011;1254;49.144;8.212;2024-01-15T05:53:40;22.65;;;11.75;;
2486;SDS011;1254;49.144;8.212;2024-01-15T05:56:10;30.30;;;13.10;;
2486;SDS011;1254;49.144;8.212;2024-01-15T05:58:38;24.90;;;11.43;;
2486;SDS011;1254;49.144;8.212;2024-01-15T06:01:07;27.08;;;12.40;;
2486;SDS011;1254;49.144;8.212;2024-01-15T06:03:35;25.10;;;12.32;;
2486;SDS011;1254;49.144;8.212;2024-01-15T06:06:03;28.80;;;12.55;;
2486;SDS011;1254;49.144;8.212;2024-01-15T06:08:33;29.60;;;12.57;;
2486;SDS011;1254;49.144;8.212;2024-01-15T06:11:02;28.33;;;14.05;;
2486;SDS011;1254;49.144;8.212;2024-01-15T06:13:30;28.23;;;13.70;;
2486;SDS011;1254;49.144;8.212;2024-01-15T06:15:58;26.13;;;12.43;;
2486;SDS011;1254;49.144;8.212;2024-01-15T06:18:26;25.50;;;13.02;;
2486;SDS011;1254;49.144;8.212;2024-01-15T06:20:55;27.25;;;12.73;;
2486;SDS011;1254;49.144;8.212;2024-01-15T06:23:24;29.80;;;14.27;;
2486;SDS011;1254;49.144;8.212;2024-01-15T06:25:54;25.40;;;12.27;;
2486;SDS011;1254;49.144;8.212;2024-01-15T06:28:22;32.58;;;12.57;;
2486;SDS011;1254;49.144;8.212;2024-01-15T06:30:51;33.35;;;14.70;;
2486;SDS011;1254;49.144;8.212;2024-01-15T06:33:19;27.15;;;12.10;;
2486;SDS011;1254;49.144;8.212;2024-01-15T06:35:47;27.83;;;10.85;;
2486;SDS011;1254;49.144;8.212;2024-01-15T06:38:16;28.65;;;14.23;;
2486;SDS011;1254;49.144;8.212;2024-01-15T06:40:44;24.58;;;11.68;;
2486;SDS011;1254;49.144;8.212;2024-01-15T06:43:15;25.30;;;12.60;;
2486;SDS011;1254;49.144;8.212;2024-01-15T06:45:44;19.65;;;11.30;;
2486;SDS011;1254;49.144;8.212;2024-01-15T06:48:12;28.05;;;12.73;;
2486;SDS011;1254;49.144;8.212;2024-01-15T06:50:42;22.10;;;12.73;;
2486;SDS011;1254;49.144;8.212;2024-01-15T06:53:10;26.35;;;11.88;;
2486;SDS011;1254;49.144;8.212;2024-01-15T06:55:39;30.13;;;12.63;;
2486;SDS011;1254;49.144;8.212;2024-01-15T06:58:07;31.13;;;13.23;;
2486;SDS011;1254;49.144;8.212;2024-01-15T07:00:36;25.25;;;12.02;;
2486;SDS011;1254;49.144;8.212;2024-01-15T07:03:05;29.38;;;12.32;;
2486;SDS011;1254;49.144;8.212;2024-01-15T07:05:34;27.98;;;12.95;;
2486;SDS011;1254;49.144;8.212;2024-01-15T07:08:03;26.58;;;13.23;;
2486;SDS011;1254;49.144;8.212;2024-01-15T07:10:31;27.38;;;13.23;;
2486;SDS011;1254;49.144;8.212;2024-01-15T07:13:00;25.60;;;13.35;;
2486;SDS011;1254;49.144;8.212;2024-01-15T07:15:28;32.72;;;15.25;;
2486;SDS011;1254;49.144;8.212;2024-01-15T07:17:58;21.63;;;12.43;;
2486;SDS011;1254;49.144;8.212;2024-01-15T07:20:26;27.58;;;13.57;;
2486;SDS011;1254;49.144;8.212;2024-01-15T07:22:54;25.73;;;15.00;;
2486;SDS011;1254;49.144;8.212;2024-01-15T07:25:23;25.58;;;13.90;;
2486;SDS011;1254;49.144;8.212;2024-01-15T07:27:52;20.67;;;11.23;;
2486;SDS011;1254;49.144;8.212;2024-01-15T07:30:20;31.58;;;14.48;;
2486;SDS011;1254;49.144;8.212;2024-01-15T07:32:49;28.45;;;13.00;;
2486;SDS011;1254;49.144;8.212;2024-01-15T07:35:20;35.33;;;13.10;;
2486;SDS011;1254;49.144;8.212;2024-01-15T07:37:48;24.00;;;12.13;;
2486;SDS011;1254;49.144;8.212;2024-01-15T07:40:16;31.90;;;14.45;;
2486;SDS011;1254;49.144;8.212;2024-01-15T07:42:44;26.08;;;12.88;;
2486;SDS011;1254;49.144;8.212;2024-01-15T07:45:13;25.67;;;11.27;;
2486;SDS011;1254;49.144;8.212;2024-01-15T07:47:42;26.05;;;13.02;;
2486;SDS011;1254;49.144;8.212;2024-01-15T07:50:10;21.67;;;12.02;;
2486;SDS011;1254;49.144;8.212;2024-01-15T07:52:40;24.20;;;14.10;;
2486;SDS011;1254;49.144;8.212;2024-01-15T07:55:09;31.48;;;15.10;;
2486;SDS011;1254;49.144;8.212;2024-01-15T07:57:37;30.15;;;13.73;;
2486;SDS011;1254;49.144;8.212;2024-01-15T08:00:06;32.83;;;13.13;;
2486;SDS011;1254;49.144;8.212;2024-01-15T08:02:35;29.48;;;13.88;;
2486;SDS011;1254;49.144;8.212;2024-01-15T08:05:03;24.08;;;10.90;;
2486;SDS011;1254;49.144;8.212;2024-01-15T08:07:31;24.33;;;12.73;;
2486;SDS011;1254;49.144;8.212;2024-01-15T08:10:01;32.25;;;13.15;;
2486;SDS011;1254;49.144;8.212;2024-01-15T08:12:29;24.63;;;12.63;;
2486;SDS011;1254;49.144;8.212;2024-01-15T08:14:58;29.73;;;14.10;;
2486;SDS011;1254;49.144;8.212;2024-01-15T08:17:26;23.48;;;12.15;;
2486;SDS011;1254;49.144;8.212;2024-01-15T08:19:54;27.73;;;12.93;;
2486;SDS011;1254;49.144;8.212;2024-01-15T08:22:23;26.80;;;12.95;;
2486;SDS011;1254;49.144;8.212;2024-01-15T08:24:51;24.00;;;12.65;;
2486;SDS011;1254;49.144;8.212;2024-01-15T08:27:21;25.20;;;13.13;;
2486;SDS011;1254;49.144;8.212;2024-01-15T08:29:49;22.73;;;11.98;;
2486;SDS011;1254;49.144;8.212;2024-01-15T08:32:17;22.90;;;11.27;;
2486;SDS011;1254;49.144;8.212;2024-01-15T08:34:45;21.50;;;11.55;;
2486;SDS011;1254;49.144;8.212;2024-01-15T08:37:15;24.30;;;11.32;;
2486;SDS011;1254;49.144;8.212;2024-01-15T08:39:43;24.27;;;12.55;;
2486;SDS011;1254;49.144;8.212;2024-01-15T08:42:11;21.80;;;12.25;;
2486;SDS011;1254;49.144;8.212;2024-01-15T08:44:41;23.65;;;10.77;;
2486;SDS011;1254;49.144;8.212;2024-01-15T08:47:09;23.17;;;10.75;;
2486;SDS011;1254;49.144;8.212;2024-01-15T08:49:38;24.67;;;11.32;;
2486;SDS011;1254;49.144;8.212;2024-01-15T08:52:06;22.38;;;12.07;;
2486;SDS011;1254;49.144;8.212;2024-01-15T08:54:35;19.90;;;10.40;;
2486;SDS011;1254;49.144;8.212;2024-01-15T08:57:03;17.88;;;11.10;;
2486;SDS011;1254;49.144;8.212;2024-01-15T08:59:32;30.73;;;12.15;;
2486;SDS011;1254;49.144;8.212;2024-01-15T09:02:01;23.67;;;13.63;;
2486;SDS011;1254;49.144;8.212;2024-01-15T09:04:30;25.52;;;11.95;;
2486;SDS011;1254;49.144;8.212;2024-01-15T09:06:58;25.98;;;12.77;;
2486;SDS011;1254;49.144;8.212;2024-01-15T09:09:26;29.90;;;13.45;;
2486;SDS011;1254;49.144;8.212;2024-01-15T09:11:54;28.75;;;13.13;;
2486;SDS011;1254;49.144;8.212;2024-01-15T09:14:23;23.17;;;14.10;;
2486;SDS011;1254;49.144;8.212;2024-01-15T09:16:53;27.10;;;14.85;;
2486;SDS011;1254;49.144;8.212;2024-01-15T09:19:23;32.92;;;14.75;;
2486;SDS011;1254;49.144;8.212;2024-01-15T09:21:51;23.30;;;13.02;;
2486;SDS011;1254;49.144;8.212;2024-01-15T09:24:20;30.67;;;15.50;;
2486;SDS011;1254;49.144;8.212;2024-01-15T09:26:48;31.85;;;15.93;;
2486;SDS011;1254;49.144;8.212;2024-01-15T09:29:16;29.08;;;13.68;;
2486;SDS011;1254;49.144;8.212;2024-01-15T09:31:44;27.58;;;13.85;;
2486;SDS011;1254;49.144;8.212;2024-01-15T09:34:13;30.52;;;15.20;;
2486;SDS011;1254;49.144;8.212;2024-01-15T09:36:42;31.70;;;14.40;;
2486;SDS011;1254;49.144;8.212;2024-01-15T09:39:11;26.50;;;15.38;;
2486;SDS011;1254;49.144;8.212;2024-01-15T09:41:39;25.40;;;14.40;;
2486;SDS011;1254;49.144;8.212;2024-01-15T09:44:07;26.23;;;12.82;;
2486;SDS011;1254;49.144;8.212;2024-01-15T09:46:36;27.40;;;14.00;;
2486;SDS011;1254;49.144;8.212;2024-01-15T09:49:05;25.65;;;14.05;;
2486;SDS011;1254;49.144;8.212;2024-01-15T09:51:33;28.58;;;13.30;;
2486;SDS011;1254;49.144;8.212;2024-01-15T09:54:04;26.27;;;12.82;;
2486;SDS011;1254;49.144;8.212;2024-01-15T09:56:32;27.23;;;13.32;;
2486;SDS011;1254;49.144;8.212;2024-01-15T09:59:00;27.98;;;13.82;;
2486;SDS011;1254;49.144;8.212;2024-01-15T10:01:31;24.02;;;13.77;;
2486;SDS011;1254;49.144;8.212;2024-01-15T10:03:59;28.00;;;13.82;;
2486;SDS011;1254;49.144;8.212;2024-01-15T10:06:27;26.17;;;12.70;;
2486;SDS011;1254;49.144;8.212;2024-01-15T10:08:56;28.33;;;13.25;;
2486;SDS011;1254;49.144;8.212;2024-01-15T10:11:26;24.00;;;12.63;;
2486;SDS011;1254;49.144;8.212;2024-01-15T10:13:55;26.77;;;12.70;;
2486;SDS011;1254;49.144;8.212;2024-01-15T10:16:23;27.15;;;14.05;;
2486;SDS011;1254;49.144;8.212;2024-01-15T10:18:51;35.50;;;15.82;;
2486;SDS011;1254;49.144;8.212;2024-01-15T10:21:20;27.30;;;14.45;;
2486;SDS011;1254;49.144;8.212;2024-01-15T10:23:49;30.52;;;14.13;;
2486;SDS011;1254;49.144;8.212;2024-01-15T10:26:17;28.95;;;13.80;;
2486;SDS011;1254;49.144;8.212;2024-01-15T10:28:47;30.00;;;15.27;;
2486;SDS011;1254;49.144;8.212;2024-01-15T10:31:18;30.98;;;14.60;;
2486;SDS011;1254;49.144;8.212;2024-01-15T10:33:47;28.08;;;14.00;;
2486;SDS011;1254;49.144;8.212;2024-01-15T10:36:16;34.03;;;13.75;;
2486;SDS011;1254;49.144;8.212;2024-01-15T10:38:45;28.95;;;13.60;;
2486;SDS011;1254;49.144;8.212;2024-01-15T10:41:13;25.33;;;12.95;;
2486;SDS011;1254;49.144;8.212;2024-01-15T10:43:42;32.67;;;13.25;;
2486;SDS011;1254;49.144;8.212;2024-01-15T10:46:12;23.23;;;13.45;;
2486;SDS011;1254;49.144;8.212;2024-01-15T10:48:41;29.85;;;14.25;;
2486;SDS011;1254;49.144;8.212;2024-01-15T10:51:09;32.80;;;15.18;;
2486;SDS011;1254;49.144;8.212;2024-01-15T10:53:39;27.88;;;15.70;;
2486;SDS011;1254;49.144;8.212;2024-01-15T10:56:09;38.35;;;17.85;;
2486;SDS011;1254;49.144;8.212;2024-01-15T10:58:38;33.10;;;16.52;;
2486;SDS011;1254;49.144;8.212;2024-01-15T11:01:07;34.60;;;18.15;;
2486;SDS011;1254;49.144;8.212;2024-01-15T11:03:37;28.50;;;12.98;;
2486;SDS011;1254;49.144;8.212;2024-01-15T11:06:15;28.63;;;17.10;;
2486;SDS011;1254;49.144;8.212;2024-01-15T11:08:45;31.60;;;17.08;;
2486;SDS011;1254;49.144;8.212;2024-01-15T11:11:13;29.08;;;14.65;;
2486;SDS011;1254;49.144;8.212;2024-01-15T11:13:43;38.40;;;17.33;;
2486;SDS011;1254;49.144;8.212;2024-01-15T11:16:16;28.80;;;15.85;;
2486;SDS011;1254;49.144;8.212;2024-01-15T11:21:29;31.98;;;16.38;;
2486;SDS011;1254;49.144;8.212;2024-01-15T11:23:58;37.88;;;17.70;;
2486;SDS011;1254;49.144;8.212;2024-01-15T11:26:27;32.42;;;17.15;;
2486;SDS011;1254;49.144;8.212;2024-01-15T11:28:55;29.30;;;14.68;;
2486;SDS011;1254;49.144;8.212;2024-01-15T11:31:28;33.58;;;15.73;;
2486;SDS011;1254;49.144;8.212;2024-01-15T11:33:56;25.13;;;14.90;;
2486;SDS011;1254;49.144;8.212;2024-01-15T11:42:03;30.75;;;15.10;;
2486;SDS011;1254;49.144;8.212;2024-01-15T11:44:31;34.78;;;15.70;;
2486;SDS011;1254;49.144;8.212;2024-01-15T11:47:00;27.88;;;13.00;;
2486;SDS011;1254;49.144;8.212;2024-01-15T11:49:31;28.75;;;15.80;;
2486;SDS011;1254;49.144;8.212;2024-01-15T11:52:05;26.48;;;15.00;;
2486;SDS011;1254;49.144;8.212;2024-01-15T11:54:34;24.33;;;13.43;;
2486;SDS011;1254;49.144;8.212;2024-01-15T11:57:08;26.25;;;15.75;;
2486;SDS011;1254;49.144;8.212;2024-01-15T11:59:38;29.75;;;15.85;;
2486;SDS011;1254;49.144;8.212;2024-01-15T12:02:06;25.70;;;13.93;;
2486;SDS011;1254;49.144;8.212;2024-01-15T12:04:37;22.00;;;11.80;;
2486;SDS011;1254;49.144;8.212;2024-01-15T12:07:06;23.00;;;13.25;;
2486;SDS011;1254;49.144;8.212;2024-01-15T12:09:34;19.80;;;12.07;;
2486;SDS011;1254;49.144;8.212;2024-01-15T12:12:05;18.83;;;11.45;;
2486;SDS011;1254;49.144;8.212;2024-01-15T12:14:38;18.20;;;11.45;;
2486;SDS011;1254;49.144;8.212;2024-01-15T12:17:07;19.13;;;11.70;;
2486;SDS011;1254;49.144;8.212;2024-01-15T12:19:37;19.73;;;11.88;;
2486;SDS011;1254;49.144;8.212;2024-01-15T12:22:05;24.98;;;11.95;;
2486;SDS011;1254;49.144;8.212;2024-01-15T12:24:33;23.42;;;12.63;;
2486;SDS011;1254;49.144;8.212;2024-01-15T12:27:01;24.20;;;11.13;;
2486;SDS011;1254;49.144;8.212;2024-01-15T12:29:30;20.65;;;12.40;;
2486;SDS011;1254;49.144;8.212;2024-01-15T12:32:00;21.58;;;12.10;;
2486;SDS011;1254;49.144;8.212;2024-01-15T12:34:28;19.73;;;12.70;;
2486;SDS011;1254;49.144;8.212;2024-01-15T12:36:57;15.90;;;10.40;;
2486;SDS011;1254;49.144;8.212;2024-01-15T12:39:26;23.98;;;10.30;;
2486;SDS011;1254;49.144;8.212;2024-01-15T12:41:54;19.45;;;10.80;;
2486;SDS011;1254;49.144;8.212;2024-01-15T12:44:22;20.30;;;11.93;;
2486;SDS011;1254;49.144;8.212;2024-01-15T12:46:51;15.23;;;10.25;;
2486;SDS011;1254;49.144;8.212;2024-01-15T12:49:20;18.45;;;11.20;;
2486;SDS011;1254;49.144;8.212;2024-01-15T12:51:51;17.08;;;11.27;;
2486;SDS011;1254;49.144;8.212;2024-01-15T12:54:20;12.70;;;9.70;;
2486;SDS011;1254;49.144;8.212;2024-01-15T12:56:49;11.98;;;9.45;;
2486;SDS011;1254;49.144;8.212;2024-01-15T12:59:18;14.70;;;8.82;;
2486;SDS011;1254;49.144;8.212;2024-01-15T13:01:46;12.02;;;9.50;;
2486;SDS011;1254;49.144;8.212;2024-01-15T13:04:22;13.98;;;9.00;;
2486;SDS011;1254;49.144;8.212;2024-01-15T13:06:50;17.20;;;13.25;;
2486;SDS011;1254;49.144;8.212;2024-01-15T13:09:19;19.77;;;12.80;;
2486;SDS011;1254;49.144;8.212;2024-01-15T13:11:47;15.60;;;9.55;;
2486;SDS011;1254;49.144;8.212;2024-01-15T13:14:15;13.38;;;10.13;;
2486;SDS011;1254;49.144;8.212;2024-01-15T13:16:44;11.15;;;9.10;;
2486;SDS011;1254;49.144;8.212;2024-01-15T13:19:12;16.58;;;8.90;;
2486;SDS011;1254;49.144;8.212;2024-01-15T13:21:42;11.63;;;8.98;;
2486;SDS011;1254;49.144;8.212;2024-01-15T13:24:10;10.23;;;8.73;;
2486;SDS011;1254;49.144;8.212;2024-01-15T13:26:40;11.75;;;8.45;;
2486;SDS011;1254;49.144;8.212;2024-01-15T13:29:08;12.63;;;9.05;;
2486;SDS011;1254;49.144;8.212;2024-01-15T13:31:36;9.80;;;7.43;;
2486;SDS011;1254;49.144;8.212;2024-01-15T13:34:05;13.60;;;7.78;;
2486;SDS011;1254;49.144;8.212;2024-01-15T13:36:33;11.23;;;7.53;;
2486;SDS011;1254;49.144;8.212;2024-01-15T13:39:03;9.13;;;6.82;;
2486;SDS011;1254;49.144;8.212;2024-01-15T13:41:34;9.95;;;7.50;;
2486;SDS011;1254;49.144;8.212;2024-01-15T13:44:03;10.20;;;7.60;;
2486;SDS011;1254;49.144;8.212;2024-01-15T13:46:31;9.80;;;7.40;;
2486;SDS011;1254;49.144;8.212;2024-01-15T13:49:00;12.40;;;8.80;;
2486;SDS011;1254;49.144;8.212;2024-01-15T13:51:28;13.05;;;8.05;;
2486;SDS011;1254;49.144;8.212;2024-01-15T13:53:56;19.10;;;9.10;;
2486;SDS011;1254;49.144;8.212;2024-01-15T13:56:26;14.60;;;8.25;;
2486;SDS011;1254;49.144;8.212;2024-01-15T13:58:58;11.10;;;7.68;;
2486;SDS011;1254;49.144;8.212;2024-01-15T14:01:27;12.23;;;7.38;;
2486;SDS011;1254;49.144;8.212;2024-01-15T14:03:55;8.18;;;6.68;;
2486;SDS011;1254;49.144;8.212;2024-01-15T14:06:23;9.10;;;6.75;;
2486;SDS011;1254;49.144;8.212;2024-01-15T14:08:52;10.98;;;6.25;;
2486;SDS011;1254;49.144;8.212;2024-01-15T14:11:20;10.70;;;7.57;;
2486;SDS011;1254;49.144;8.212;2024-01-15T14:13:50;12.45;;;7.75;;
2486;SDS011;1254;49.144;8.212;2024-01-15T14:16:18;10.98;;;7.72;;
2486;SDS011;1254;49.144;8.212;2024-01-15T14:18:46;11.90;;;7.53;;
2486;SDS011;1254;49.144;8.212;2024-01-15T14:21:15;14.95;;;8.45;;
2486;SDS011;1254;49.144;8.212;2024-01-15T14:23:43;12.30;;;7.05;;
2486;SDS011;1254;49.144;8.212;2024-01-15T14:26:11;12.52;;;7.32;;
2486;SDS011;1254;49.144;8.212;2024-01-15T14:28:40;10.90;;;7.85;;
2486;SDS011;1254;49.144;8.212;2024-01-15T14:31:09;12.43;;;8.45;;
2486;SDS011;1254;49.144;8.212;2024-01-15T14:33:37;10.00;;;6.55;;
2486;SDS011;1254;49.144;8.212;2024-01-15T14:36:06;8.52;;;6.72;;
2486;SDS011;1254;49.144;8.212;2024-01-15T14:38:34;15.40;;;8.65;;
2486;SDS011;1254;49.144;8.212;2024-01-15T14:41:02;20.27;;;10.68;;
2486;SDS011;1254;49.144;8.212;2024-01-15T14:43:31;18.17;;;9.90;;
2486;SDS011;1254;49.144;8.212;2024-01-15T14:45:59;12.45;;;9.10;;
2486;SDS011;1254;49.144;8.212;2024-01-15T14:48:29;9.07;;;7.13;;
2486;SDS011;1254;49.144;8.212;2024-01-15T14:50:57;10.82;;;7.95;;
2486;SDS011;1254;49.144;8.212;2024-01-15T14:53:25;10.73;;;7.90;;
2486;SDS011;1254;49.144;8.212;2024-01-15T14:55:53;12.15;;;7.97;;
2486;SDS011;1254;49.144;8.212;2024-01-15T14:58:22;9.52;;;6.35;;
2486;SDS011;1254;49.144;8.212;2024-01-15T15:00:50;12.32;;;7.90;;
2486;SDS011;1254;49.144;8.212;2024-01-15T15:03:18;9.80;;;6.50;;
2486;SDS011;1254;49.144;8.212;2024-01-15T15:05:48;16.85;;;7.78;;
2486;SDS011;1254;49.144;8.212;2024-01-15T15:08:16;11.80;;;7.07;;